createdAt,value
2022-08-10T00:00:39.958Z,76.88
2022-08-10T00:01:40.179Z,76.6
2022-08-10T00:02:39.942Z,76.6
2022-08-10T00:03:39.926Z,77.36
2022-08-10T00:04:39.922Z,78.22
2022-08-10T00:05:52.508Z,77.94
2022-08-10T00:06:39.907Z,78.6
2022-08-10T00:07:39.896Z,78.6
2022-08-10T00:08:39.887Z,78.51
2022-08-10T00:09:53.504Z,78.7
2022-08-10T00:10:39.871Z,78.03
2022-08-10T00:11:39.606Z,78.22
2022-08-10T00:12:57.281Z,77.65
2022-08-10T00:13:39.846Z,77.45
2022-08-10T00:14:39.834Z,77.94
2022-08-10T00:15:55.633Z,77.94
2022-08-10T00:16:39.844Z,77.74
2022-08-10T00:17:39.813Z,78.6
2022-08-10T00:18:39.544Z,78.31
2022-08-10T00:20:10.612Z,78.41
2022-08-10T00:20:39.528Z,78.37
2022-08-10T00:21:39.801Z,78.37
2022-08-10T00:22:59.697Z,78.66
2022-08-10T00:23:39.501Z,78.85
2022-08-10T00:24:45.160Z,78.75
2022-08-10T00:25:39.743Z,78.47
2022-08-10T00:28:04.579Z,78.56
2022-08-10T00:28:13.818Z,78.41
2022-08-10T00:29:14.419Z,78.47
2022-08-10T00:30:14.077Z,77.8
2022-08-10T00:31:14.049Z,77.89
2022-08-10T00:32:14.061Z,77.8
2022-08-10T00:33:14.030Z,78.51
2022-08-10T00:34:14.027Z,77.84
2022-08-10T00:35:14.018Z,78.09
2022-08-10T00:36:13.759Z,78.18
2022-08-10T00:37:13.742Z,77.99
2022-08-10T00:38:13.736Z,78.56
2022-08-10T00:39:18.441Z,78.75
2022-08-10T00:40:13.974Z,78.94
2022-08-10T00:41:13.706Z,78.85
2022-08-10T00:42:13.957Z,78.75
2022-08-10T00:43:13.689Z,78.94
2022-08-10T00:44:13.941Z,79.04
2022-08-10T00:45:13.926Z,78.85
2022-08-10T00:46:13.667Z,79.14
2022-08-10T00:47:38.372Z,79.52
2022-08-10T00:48:14.073Z,79.61
2022-08-10T00:49:13.643Z,79.61
2022-08-10T00:50:13.637Z,79.23
2022-08-10T00:51:13.878Z,79.14
2022-08-10T00:52:13.870Z,79.71
2022-08-10T00:53:13.862Z,79.61
2022-08-10T00:54:26.592Z,79.9
2022-08-10T00:55:13.842Z,80.19
2022-08-10T00:57:18.763Z,80.28
2022-08-10T00:57:28.575Z,80.09
2022-08-10T00:58:28.575Z,80.09
2022-08-10T00:59:28.558Z,80.09
2022-08-10T01:00:28.291Z,80.28
2022-08-10T01:02:13.944Z,80.09
2022-08-10T01:02:28.799Z,80.28
2022-08-10T01:05:01.838Z,80.28
2022-08-10T01:05:12.470Z,80.28
2022-08-10T01:06:17.599Z,80.19
2022-08-10T01:07:12.199Z,79.99
2022-08-10T01:08:12.453Z,79.9
2022-08-10T01:09:12.184Z,80.28
2022-08-10T01:10:12.431Z,79.96
2022-08-10T01:12:42.583Z,81.2
2022-08-10T01:12:53.068Z,81.01
2022-08-10T01:13:52.799Z,81.01
2022-08-10T01:14:52.530Z,80.91
2022-08-10T01:15:52.776Z,81.01
2022-08-10T01:16:52.508Z,80.91
2022-08-10T01:17:54.034Z,81.48
2022-08-10T01:18:52.827Z,81.38
2022-08-10T01:19:52.768Z,81.96
2022-08-10T01:20:52.725Z,82.06
2022-08-10T01:21:59.511Z,82.06
2022-08-10T01:22:52.718Z,82.63
2022-08-10T01:23:52.698Z,82.63
2022-08-10T01:24:52.692Z,82.72
2022-08-10T01:26:30.903Z,82.53
2022-08-10T01:26:52.672Z,82.63
2022-08-10T01:27:52.669Z,83.29
2022-08-10T01:28:52.653Z,82.63
2022-08-10T01:29:52.641Z,83.48
2022-08-10T01:30:53.345Z,83.2
2022-08-10T01:31:52.627Z,83.11
2022-08-10T01:32:52.631Z,82.72
2022-08-10T01:34:02.148Z,83.01
2022-08-10T01:34:52.604Z,83.96
2022-08-10T01:35:52.591Z,84.06
2022-08-10T01:36:52.587Z,84.06
2022-08-10T01:37:54.554Z,83.96
2022-08-10T01:38:52.563Z,83.48
2022-08-10T01:39:52.689Z,83.96
2022-08-10T01:40:52.543Z,83.87
2022-08-10T01:41:52.531Z,83.29
2022-08-10T01:42:52.524Z,83.58
2022-08-10T01:43:52.515Z,83.48
2022-08-10T01:44:52.506Z,83.87
2022-08-10T01:45:52.241Z,83.67
2022-08-10T01:46:59.418Z,83.77
2022-08-10T01:47:52.221Z,84.16
2022-08-10T01:48:52.466Z,84.16
2022-08-10T01:49:52.204Z,84.4
2022-08-10T01:51:01.915Z,84.63
2022-08-10T01:51:52.445Z,84.92
2022-08-10T01:52:52.427Z,84.25
2022-08-10T01:53:52.424Z,84.92
2022-08-10T01:54:56.109Z,84.53
2022-08-10T01:55:52.145Z,84.72
2022-08-10T01:56:52.393Z,84.72
2022-08-10T01:57:52.387Z,84.63
2022-08-10T01:58:52.117Z,84.63
2022-08-10T02:00:04.717Z,84.92
2022-08-10T02:00:52.501Z,85.06
2022-08-10T02:01:52.348Z,84.88
2022-08-10T02:02:52.333Z,85.25
2022-08-10T02:04:07.869Z,85.16
2022-08-10T02:04:52.322Z,85.64
2022-08-10T02:05:52.050Z,85.93
2022-08-10T02:06:52.041Z,86.11
2022-08-10T02:07:52.290Z,87.07
2022-08-10T02:09:08.385Z,87.16
2022-08-10T02:09:52.270Z,87.35
2022-08-10T02:10:52.257Z,86.98
2022-08-10T02:12:10.264Z,87.35
2022-08-10T02:12:52.246Z,87.64
2022-08-10T02:13:51.976Z,87.45
2022-08-10T02:14:52.219Z,87.93
2022-08-10T02:16:04.215Z,88.31
2022-08-10T02:16:52.199Z,88.78
2022-08-10T02:18:01.932Z,88.5
2022-08-10T02:18:52.181Z,88.5
2022-08-10T02:19:52.176Z,88.5
2022-08-10T02:20:52.165Z,88.78
2022-08-10T02:22:40.444Z,88.78
2022-08-10T02:22:52.880Z,88.69
2022-08-10T02:24:02.857Z,88.69
2022-08-10T02:24:52.125Z,88.31
2022-08-10T02:25:51.860Z,88.88
2022-08-10T02:26:59.841Z,88.69
2022-08-10T02:27:52.101Z,88.69
2022-08-10T02:28:51.831Z,88.88
2022-08-10T02:29:52.077Z,88.5
2022-08-10T02:30:52.592Z,88.12
2022-08-10T02:31:53.659Z,87.93
2022-08-10T02:32:55.362Z,88.12
2022-08-10T02:34:01.702Z,87.54
2022-08-10T02:34:52.034Z,87.83
2022-08-10T02:35:57.107Z,87.64
2022-08-10T02:36:52.011Z,87.35
2022-08-10T02:37:52.003Z,86.98
2022-08-10T02:39:02.644Z,87.45
2022-08-10T02:39:51.977Z,87.54
2022-08-10T02:45:30.562Z,88.02
2022-08-10T02:45:43.014Z,87.93
2022-08-10T02:46:42.751Z,88.21
2022-08-10T02:47:53.318Z,87.74
2022-08-10T02:48:43.470Z,87.64
2022-08-10T02:49:43.459Z,87.74
2022-08-10T02:50:43.464Z,87.35
2022-08-10T02:52:09.928Z,87.45
2022-08-10T02:52:43.435Z,88.02
2022-08-10T02:53:57.503Z,87.74
2022-08-10T02:54:43.416Z,87.83
2022-08-10T02:55:43.399Z,88.4
2022-08-10T02:56:44.052Z,88.69
2022-08-10T02:58:20.443Z,88.98
2022-08-10T02:58:44.285Z,88.69
2022-08-10T02:59:44.275Z,88.5
2022-08-10T03:00:44.195Z,88.69
2022-08-10T03:01:44.944Z,88.4
2022-08-10T03:02:44.255Z,88.59
2022-08-10T03:03:43.985Z,88.69
2022-08-10T03:04:59.562Z,88.78
2022-08-10T03:05:43.961Z,88.69
2022-08-10T03:06:45.802Z,88.88
2022-08-10T03:07:45.897Z,88.98
2022-08-10T03:08:44.195Z,88.98
2022-08-10T03:09:43.923Z,89.17
2022-08-10T03:10:43.913Z,89.54
2022-08-10T03:12:40.273Z,89.45
2022-08-10T03:12:51.553Z,89.45
2022-08-10T03:14:02.316Z,89.64
2022-08-10T03:14:50.906Z,89.74
2022-08-10T03:15:50.881Z,89.93
2022-08-10T03:16:50.870Z,90.5
2022-08-10T03:18:00.224Z,90.22
2022-08-10T03:18:50.850Z,90.22
2022-08-10T03:20:40.021Z,90.03
2022-08-10T03:20:50.834Z,90.22
2022-08-10T03:21:51.241Z,90.31
2022-08-10T03:22:50.817Z,90.59
2022-08-10T03:23:50.803Z,90.41
2022-08-10T03:24:50.535Z,90.31
2022-08-10T03:25:56.394Z,90.31
2022-08-10T03:26:50.775Z,90.22
2022-08-10T03:27:50.759Z,90.12
2022-08-10T03:28:50.752Z,90.69
2022-08-10T03:30:35.142Z,90.59
2022-08-10T03:30:50.737Z,90.5
2022-08-10T03:31:50.723Z,90.5
2022-08-10T03:49:09.763Z,90.45
2022-08-10T03:50:53.538Z,91.03
2022-08-10T03:51:09.732Z,90.45
2022-08-10T03:52:09.714Z,90.55
2022-08-10T03:54:02.521Z,91.31
2022-08-10T03:54:15.743Z,91.41
2022-08-10T03:56:32.152Z,91.6
2022-08-10T03:56:43.159Z,91.6
2022-08-10T03:57:52.065Z,91.13
2022-08-10T03:58:43.139Z,91.41
2022-08-10T03:59:43.126Z,91.88
2022-08-10T04:00:43.023Z,91.6
2022-08-10T04:02:54.903Z,92.08
2022-08-10T04:03:06.239Z,92.08
2022-08-10T04:04:17.716Z,92.36
2022-08-10T04:05:06.218Z,93.03
2022-08-10T04:06:06.206Z,92.93
2022-08-10T04:07:05.939Z,93.12
2022-08-10T04:08:10.218Z,93.79
2022-08-10T04:09:06.171Z,93.41
2022-08-10T04:10:05.917Z,94.08
2022-08-10T04:11:05.898Z,94.37
2022-08-10T04:12:06.142Z,94.65
2022-08-10T04:13:05.878Z,94.84
2022-08-10T04:14:06.125Z,94.7
2022-08-10T04:15:05.852Z,95.08
2022-08-10T04:16:10.085Z,95.08
2022-08-10T04:17:08.504Z,94.7
2022-08-10T04:18:09.000Z,94.98
2022-08-10T04:19:08.361Z,95.46
2022-08-10T04:20:08.367Z,96.03
2022-08-10T04:21:08.341Z,95.65
2022-08-10T04:22:08.071Z,95.65
2022-08-10T04:23:08.342Z,95.84
2022-08-10T04:24:08.052Z,95.84
2022-08-10T04:25:08.043Z,95.75
2022-08-10T04:26:08.326Z,94.98
2022-08-10T04:27:08.278Z,95.32
2022-08-10T04:28:08.318Z,94.56
2022-08-10T04:29:08.004Z,95.12
2022-08-10T04:30:08.254Z,94.74
2022-08-10T04:31:08.238Z,94.46
2022-08-10T04:32:08.230Z,94.46
2022-08-10T04:33:08.218Z,94.46
2022-08-10T04:34:11.201Z,94.36
2022-08-10T04:35:07.948Z,94.17
2022-08-10T04:36:08.193Z,94.12
2022-08-10T04:37:11.648Z,94.31
2022-08-10T04:38:08.176Z,94.03
2022-08-10T04:39:08.316Z,94.22
2022-08-10T04:40:31.217Z,94.12
2022-08-10T04:41:07.890Z,93.93
2022-08-10T04:42:08.136Z,93.74
2022-08-10T04:43:15.134Z,93.36
2022-08-10T04:44:07.861Z,93.46
2022-08-10T04:45:07.850Z,93.6
2022-08-10T04:46:56.695Z,93.12
2022-08-10T04:47:10.922Z,93.21
2022-08-10T04:48:53.351Z,93.02
2022-08-10T04:50:02.825Z,92.64
2022-08-10T04:51:02.975Z,92.83
2022-08-10T04:52:01.779Z,92.55
2022-08-10T04:53:02.017Z,92.79
2022-08-10T04:54:07.233Z,92.79
2022-08-10T04:55:01.915Z,92.5
2022-08-10T04:56:01.998Z,91.83
2022-08-10T04:57:01.984Z,91.74
2022-08-10T04:58:01.720Z,91.54
2022-08-10T04:59:01.970Z,91.45
2022-08-10T05:00:01.962Z,90.97
2022-08-10T05:01:02.098Z,90.39
2022-08-10T05:02:33.483Z,90.63
2022-08-10T05:03:01.935Z,90.11
2022-08-10T05:04:39.516Z,90.06
2022-08-10T05:05:01.677Z,89.77
2022-08-10T05:06:03.884Z,89.77
2022-08-10T05:07:01.919Z,89.48
2022-08-10T05:08:01.902Z,89.58
2022-08-10T05:09:01.634Z,89.29
2022-08-10T05:10:08.353Z,89.1
2022-08-10T05:11:01.614Z,88.91
2022-08-10T05:12:01.881Z,89.01
2022-08-10T05:13:01.877Z,88.86
2022-08-10T05:14:01.588Z,88.24
2022-08-10T05:15:01.837Z,87.71
2022-08-10T05:16:01.832Z,87.52
2022-08-10T05:17:01.821Z,87.62
2022-08-10T05:18:12.108Z,87.9
2022-08-10T05:19:01.808Z,87.23
2022-08-10T05:20:08.216Z,87.62
2022-08-10T05:21:01.786Z,86.94
2022-08-10T05:22:06.651Z,86.47
2022-08-10T05:23:01.775Z,85.41
2022-08-10T05:24:01.767Z,85.51
2022-08-10T05:25:01.504Z,85.32
2022-08-10T05:26:01.494Z,84.98
2022-08-10T05:27:12.018Z,85.36
2022-08-10T05:28:06.587Z,84.98
2022-08-10T05:29:01.727Z,84.12
2022-08-10T05:30:04.707Z,83.64
2022-08-10T05:31:01.723Z,83.36
2022-08-10T05:32:01.449Z,83.64
2022-08-10T05:33:08.729Z,83.26
2022-08-10T05:34:01.694Z,82.87
2022-08-10T05:35:01.684Z,82.59
2022-08-10T05:36:01.673Z,82.49
2022-08-10T05:37:01.417Z,82.15
2022-08-10T05:38:17.431Z,82.06
2022-08-10T05:39:17.535Z,81.96
2022-08-10T05:40:17.403Z,81.86
2022-08-10T05:41:17.656Z,81.2
2022-08-10T05:42:17.385Z,81.2
2022-08-10T05:43:19.189Z,81
2022-08-10T05:44:18.275Z,81.1
2022-08-10T05:45:18.009Z,81.2
2022-08-10T05:46:23.583Z,80.43
2022-08-10T05:47:17.994Z,80.14
2022-08-10T05:49:01.673Z,80.04
2022-08-10T05:49:18.242Z,79.75
2022-08-10T05:50:18.230Z,80.14
2022-08-10T05:51:21.570Z,79.57
2022-08-10T05:52:17.961Z,80.04
2022-08-10T05:54:06.439Z,79.75
2022-08-10T05:54:17.945Z,79.75
2022-08-10T05:55:20.257Z,79.95
2022-08-10T05:56:17.934Z,80.24
2022-08-10T05:57:18.181Z,79.95
2022-08-10T05:58:18.180Z,80.04
2022-08-10T06:00:33.752Z,80.81
2022-08-10T06:00:59.952Z,80.14
2022-08-10T06:02:36.839Z,80.56
2022-08-10T06:02:59.047Z,79.8
2022-08-10T06:03:58.651Z,80.08
2022-08-10T06:04:58.904Z,80.08
2022-08-10T06:05:58.891Z,80.66
2022-08-10T06:06:58.627Z,80.37
2022-08-10T06:07:58.801Z,80.27
2022-08-10T06:08:58.618Z,80.47
2022-08-10T06:10:01.546Z,80.66
2022-08-10T06:12:31.409Z,80.56
2022-08-10T06:13:09.334Z,80.27
2022-08-10T06:14:30.470Z,80.66
2022-08-10T06:15:51.000Z,80.27
2022-08-10T06:16:21.934Z,80.76
2022-08-10T06:17:22.187Z,79.8
2022-08-10T06:18:22.238Z,80.18
2022-08-10T06:19:22.175Z,79.51
2022-08-10T06:20:22.167Z,79.32
2022-08-10T06:21:22.164Z,78.84
2022-08-10T06:22:22.155Z,78.36
2022-08-10T06:23:22.149Z,78.84
2022-08-10T06:24:30.181Z,77.88
2022-08-10T06:26:14.826Z,77.97
2022-08-10T06:26:29.411Z,77.88
2022-08-10T06:27:37.333Z,76.92
2022-08-10T06:28:29.403Z,77.02
2022-08-10T06:29:29.389Z,76.35
2022-08-10T06:30:29.388Z,76.35
2022-08-10T06:31:31.769Z,76.35
2022-08-10T06:32:29.409Z,76
2022-08-10T06:33:29.260Z,75.52
2022-08-10T06:34:29.118Z,75.52
2022-08-10T06:35:29.099Z,75.23
2022-08-10T06:36:36.393Z,75.71
2022-08-10T06:37:29.338Z,75.23
2022-08-10T06:38:29.081Z,75.43
2022-08-10T06:39:38.301Z,74.76
2022-08-10T06:40:29.494Z,74.18
2022-08-10T06:42:18.742Z,73.61
2022-08-10T06:42:29.947Z,73.51
2022-08-10T06:43:29.827Z,72.64
2022-08-10T06:44:29.567Z,71.88
2022-08-10T06:45:29.564Z,70.57
2022-08-10T06:46:29.812Z,70.19
2022-08-10T06:47:29.803Z,69.71
2022-08-10T06:48:29.800Z,69.62
2022-08-10T06:49:29.792Z,69.9
2022-08-10T06:50:56.538Z,70.03
2022-08-10T06:51:29.782Z,70.42
2022-08-10T06:52:29.778Z,70.42
2022-08-10T06:53:56.711Z,69.11
2022-08-10T06:54:29.510Z,69.2
2022-08-10T06:55:56.164Z,66.74
2022-08-10T06:56:43.818Z,65.5
2022-08-10T06:57:29.488Z,62.9
2022-08-10T06:58:29.746Z,59.45
2022-08-10T06:59:29.736Z,55.78
2022-08-10T07:00:36.438Z,51.78
2022-08-10T07:01:29.907Z,47.41
2022-08-10T07:02:29.635Z,46.19
2022-08-10T07:03:29.471Z,43.91
2022-08-10T07:04:34.551Z,43.76
2022-08-10T07:05:29.457Z,41.16
2022-08-10T07:06:29.460Z,39.55
2022-08-10T07:07:30.046Z,38.01
2022-08-10T07:08:29.712Z,36.57
2022-08-10T07:09:29.705Z,36.1
2022-08-10T07:10:48.386Z,35.13
2022-08-10T07:11:29.711Z,34.88
2022-08-10T07:12:29.908Z,34.09
2022-08-10T07:14:19.897Z,33.23
2022-08-10T07:14:29.914Z,33.72
2022-08-10T07:16:02.334Z,33.73
2022-08-10T07:16:29.657Z,33.15
2022-08-10T07:17:29.914Z,31.7
2022-08-10T07:18:31.960Z,30.73
2022-08-10T07:19:29.659Z,30.44
2022-08-10T07:20:29.922Z,30.26
2022-08-10T07:21:29.920Z,29
2022-08-10T07:24:00.385Z,28.03
2022-08-10T07:24:11.643Z,28.43
2022-08-10T07:25:11.251Z,29.5
2022-08-10T07:26:11.251Z,29.91
2022-08-10T07:27:11.253Z,29.14
2022-08-10T07:28:11.028Z,28.18
2022-08-10T07:29:55.314Z,26.92
2022-08-10T07:30:11.015Z,27.04
2022-08-10T07:31:58.863Z,26.84
2022-08-10T07:32:11.270Z,26.86
2022-08-10T07:33:11.012Z,25.68
2022-08-10T07:34:11.280Z,25.68
2022-08-10T07:35:11.280Z,26.55
2022-08-10T07:36:11.289Z,27.11
2022-08-10T07:37:11.292Z,27.77
2022-08-10T07:38:11.291Z,28.14
2022-08-10T07:39:11.138Z,29.95
2022-08-10T07:40:11.528Z,31.96
2022-08-10T07:41:11.304Z,31.96
2022-08-10T07:42:11.053Z,32.16
2022-08-10T07:43:11.311Z,32.32
2022-08-10T07:44:11.072Z,33.34
2022-08-10T07:45:11.068Z,34.87
2022-08-10T07:46:12.044Z,36.38
2022-08-10T07:47:11.349Z,37.53
2022-08-10T07:48:11.329Z,38.42
2022-08-10T07:49:21.709Z,37.88
2022-08-10T07:50:11.335Z,36.16
2022-08-10T07:51:11.332Z,34.43
2022-08-10T07:52:11.339Z,33.77
2022-08-10T07:53:11.094Z,33.77
2022-08-10T07:54:11.341Z,33.28
2022-08-10T07:55:11.340Z,33.54
2022-08-10T07:56:48.298Z,35.16
2022-08-10T07:57:11.341Z,35.88
2022-08-10T07:58:11.354Z,36.27
2022-08-10T07:59:11.090Z,37.59
2022-08-10T08:00:11.358Z,37.96
2022-08-10T08:01:11.363Z,38.71
2022-08-10T08:02:11.585Z,40.13
2022-08-10T08:03:11.092Z,41.48
2022-08-10T08:04:13.840Z,42.52
2022-08-10T08:05:11.091Z,43.28
2022-08-10T08:06:15.989Z,45.21
2022-08-10T08:07:21.442Z,45.21
2022-08-10T08:08:16.237Z,44.8
2022-08-10T08:09:15.978Z,44.51
2022-08-10T08:10:15.981Z,46.06
2022-08-10T08:11:28.661Z,46.23
2022-08-10T08:12:16.238Z,47.09
2022-08-10T08:13:17.196Z,48.16
2022-08-10T08:14:16.235Z,48.33
2022-08-10T08:16:21.890Z,46.88
2022-08-10T08:16:32.186Z,47.09
2022-08-10T08:17:38.468Z,46.9
2022-08-10T08:18:32.184Z,47.09
2022-08-10T08:19:45.962Z,47.29
2022-08-10T08:20:32.465Z,47.41
2022-08-10T08:24:32.170Z,46.06
2022-08-10T08:24:46.105Z,45.59
2022-08-10T08:25:45.319Z,44.82
2022-08-10T08:26:52.290Z,44.26
2022-08-10T08:27:51.365Z,44.73
2022-08-10T08:28:45.571Z,45.5
2022-08-10T08:29:45.322Z,45.59
2022-08-10T08:30:50.817Z,46.17
2022-08-10T08:32:04.715Z,46.56
2022-08-10T08:32:45.314Z,46.83
2022-08-10T08:33:45.311Z,46.44
2022-08-10T08:34:45.568Z,46.83
2022-08-10T08:35:45.317Z,48.57
2022-08-10T08:36:45.317Z,49.34
2022-08-10T08:38:35.009Z,48.39
2022-08-10T08:38:45.565Z,48.39
2022-08-10T08:39:49.455Z,47.14
2022-08-10T08:40:45.561Z,46.85
2022-08-10T08:41:45.565Z,46.83
2022-08-10T08:42:45.559Z,47.24
2022-08-10T08:43:45.555Z,47.05
2022-08-10T08:44:45.310Z,45.89
2022-08-10T08:46:04.118Z,46.17
2022-08-10T08:46:45.551Z,45.79
2022-08-10T08:48:06.574Z,46.08
2022-08-10T08:48:45.549Z,45.79
2022-08-10T08:50:10.486Z,47.53
2022-08-10T08:50:45.545Z,47.02
2022-08-10T08:52:20.079Z,47.02
2022-08-10T08:52:45.543Z,47.02
2022-08-10T08:54:05.681Z,47.99
2022-08-10T08:54:45.543Z,47.87
2022-08-10T08:56:08.006Z,47.02
2022-08-10T08:56:50.627Z,47.29
2022-08-10T08:57:52.995Z,47
2022-08-10T08:58:45.283Z,46.71
2022-08-10T08:59:45.279Z,46.81
2022-08-10T09:00:45.281Z,47.19
2022-08-10T09:01:45.660Z,47.19
2022-08-10T09:02:45.533Z,46.42
2022-08-10T09:03:45.277Z,46.23
2022-08-10T09:04:45.581Z,46.54
2022-08-10T09:06:01.978Z,45.28
2022-08-10T09:06:45.272Z,45.11
2022-08-10T09:08:04.295Z,44.43
2022-08-10T09:08:45.583Z,44.17
2022-08-10T09:09:45.521Z,43.37
2022-08-10T09:10:45.523Z,44.15
2022-08-10T09:11:45.521Z,44.63
2022-08-10T09:12:45.525Z,44.92
2022-08-10T09:13:45.540Z,44.42
2022-08-10T09:14:45.783Z,44.42
2022-08-10T09:15:45.511Z,44.42
2022-08-10T09:16:45.516Z,45.84
2022-08-10T09:17:45.256Z,45.65
2022-08-10T09:18:45.511Z,45.65
2022-08-10T09:19:45.508Z,45.72
2022-08-10T09:20:45.510Z,46.11
2022-08-10T09:22:13.634Z,46.01
2022-08-10T09:22:45.507Z,46.59
2022-08-10T09:24:07.195Z,47.45
2022-08-10T09:24:45.503Z,47.27
2022-08-10T09:25:45.499Z,47.94
2022-08-10T09:26:45.504Z,49.87
2022-08-10T09:27:47.738Z,48.03
2022-08-10T09:28:45.499Z,47.36
2022-08-10T09:29:45.239Z,47.17
2022-08-10T09:31:22.255Z,47.27
2022-08-10T09:36:19.086Z,48.81
2022-08-10T09:36:42.549Z,48.81
2022-08-10T09:38:04.258Z,47.75
2022-08-10T09:38:41.627Z,48.23
2022-08-10T09:41:04.139Z,48.52
2022-08-10T09:41:21.808Z,47.96
2022-08-10T09:42:21.986Z,46.81
2022-08-10T09:43:28.246Z,46.33
2022-08-10T09:44:21.981Z,45.65
2022-08-10T09:45:21.985Z,44.42
2022-08-10T09:46:21.983Z,44.7
2022-08-10T09:47:21.985Z,44.42
2022-08-10T09:48:21.719Z,44.22
2022-08-10T09:49:53.189Z,44.51
2022-08-10T09:50:21.981Z,44.32
2022-08-10T09:51:47.970Z,44.8
2022-08-10T09:52:21.974Z,44.9
2022-08-10T09:53:21.973Z,44.42
2022-08-10T09:54:21.713Z,44.22
2022-08-10T09:55:21.973Z,44.12
2022-08-10T09:56:35.011Z,44.32
2022-08-10T09:57:48.172Z,44.12
2022-08-10T09:58:35.008Z,44.03
2022-08-10T10:00:03.922Z,43.54
2022-08-10T10:00:35.006Z,43.64
2022-08-10T10:02:06.073Z,43.16
2022-08-10T10:02:35.005Z,42.85
2022-08-10T10:03:35.133Z,42.56
2022-08-10T10:04:34.746Z,42.77
2022-08-10T10:05:35.000Z,43.26
2022-08-10T10:06:34.748Z,44.29
2022-08-10T10:07:35.008Z,44.32
2022-08-10T10:08:37.339Z,44.51
2022-08-10T10:09:34.995Z,44.51
2022-08-10T10:10:34.745Z,44.22
2022-08-10T10:11:34.992Z,43.28
2022-08-10T10:12:34.995Z,43.28
2022-08-10T10:14:09.324Z,41.46
2022-08-10T10:14:34.993Z,41.87
2022-08-10T10:15:34.988Z,41.19
2022-08-10T10:16:34.985Z,41.58
2022-08-10T10:17:35.176Z,42.07
2022-08-10T10:18:35.240Z,41
2022-08-10T10:19:40.644Z,41
2022-08-10T10:20:34.985Z,41.09
2022-08-10T10:21:58.482Z,41.77
2022-08-10T10:22:34.977Z,42.07
2022-08-10T10:23:35.075Z,41.77
2022-08-10T10:24:34.974Z,41.48
2022-08-10T10:25:57.757Z,41.19
2022-08-10T10:26:35.241Z,41.94
2022-08-10T10:27:35.349Z,41.94
2022-08-10T10:29:31.110Z,42.43
2022-08-10T10:30:07.740Z,42.83
2022-08-10T10:31:18.785Z,42.52
2022-08-10T10:32:07.991Z,42.52
2022-08-10T10:33:07.737Z,42.35
2022-08-10T10:34:07.993Z,41.97
2022-08-10T10:35:07.734Z,41.87
2022-08-10T10:36:07.987Z,41.58
2022-08-10T10:37:07.991Z,40.9
2022-08-10T10:38:07.988Z,40.81
2022-08-10T10:39:07.799Z,41.09
2022-08-10T10:40:07.729Z,40.61
2022-08-10T10:41:07.728Z,40.9
2022-08-10T10:42:14.734Z,41.97
2022-08-10T10:43:07.985Z,41.77
2022-08-10T10:44:07.979Z,40.71
2022-08-10T10:45:09.406Z,40.52
2022-08-10T10:46:07.990Z,40.71
2022-08-10T10:47:07.730Z,40.73
2022-08-10T10:48:07.986Z,40.44
2022-08-10T10:49:07.984Z,40.17
2022-08-10T10:50:07.980Z,39.97
2022-08-10T10:51:12.878Z,39.88
2022-08-10T10:52:07.992Z,39.97
2022-08-10T10:53:07.985Z,39.59
2022-08-10T10:54:07.730Z,39.41
2022-08-10T10:55:07.983Z,39.39
2022-08-10T10:56:17.122Z,38.62
2022-08-10T10:57:07.983Z,38.62
2022-08-10T10:58:08.043Z,39.01
2022-08-10T10:59:57.713Z,40.07
2022-08-10T11:00:07.730Z,40.07
2022-08-10T11:01:08.084Z,39.97
2022-08-10T11:02:07.728Z,40.36
2022-08-10T11:03:07.983Z,40.09
2022-08-10T11:04:07.725Z,40.09
2022-08-10T11:05:07.725Z,39.9
2022-08-10T11:06:11.749Z,39.01
2022-08-10T11:07:07.739Z,38.25
2022-08-10T11:08:08.679Z,38.13
2022-08-10T11:09:59.972Z,38.33
2022-08-10T11:10:54.741Z,38.04
2022-08-10T11:12:04.858Z,37.94
2022-08-10T11:12:53.482Z,37.46
2022-08-10T11:14:34.587Z,38.23
2022-08-10T11:15:42.604Z,38.41
2022-08-10T11:16:34.330Z,37.82
2022-08-10T11:17:34.976Z,38.21
2022-08-10T11:18:34.590Z,37.65
2022-08-10T11:20:05.866Z,37.92
2022-08-10T11:20:34.332Z,38.41
2022-08-10T11:21:34.590Z,38.99
2022-08-10T11:22:39.433Z,38.5
2022-08-10T11:23:34.727Z,39.69
2022-08-10T11:24:51.857Z,39.2
2022-08-10T11:25:34.590Z,38.43
2022-08-10T11:26:34.337Z,37.85
2022-08-10T11:27:34.713Z,38.62
2022-08-10T11:28:39.113Z,38.43
2022-08-10T11:29:34.335Z,38.13
2022-08-10T11:30:34.337Z,37.26
2022-08-10T11:31:34.593Z,37.55
2022-08-10T11:32:34.591Z,37.65
2022-08-10T11:33:46.970Z,37.75
2022-08-10T11:35:17.239Z,37.85
2022-08-10T11:36:16.987Z,37.55
2022-08-10T11:37:17.248Z,37.85
2022-08-10T11:38:47.395Z,38.62
2022-08-10T11:39:22.633Z,39.78
2022-08-10T11:40:22.277Z,39.78
2022-08-10T11:42:23.316Z,38.23
2022-08-10T11:42:44.265Z,38.43
2022-08-10T11:43:44.265Z,38.62
2022-08-10T11:44:44.522Z,38.6
2022-08-10T11:45:56.416Z,38.99
2022-08-10T11:46:44.267Z,39.57
2022-08-10T11:47:44.263Z,39.76
2022-08-10T11:49:00.885Z,39.95
2022-08-10T11:49:44.521Z,39.97
2022-08-10T11:50:44.519Z,40.17
2022-08-10T11:51:44.265Z,40.17
2022-08-10T11:52:44.518Z,39.2
2022-08-10T11:53:44.521Z,39.01
2022-08-10T11:54:44.266Z,38.91
2022-08-10T11:55:44.561Z,39.7
2022-08-10T11:56:44.599Z,38.17
2022-08-10T11:57:57.972Z,37.49
2022-08-10T11:58:44.520Z,37.13
2022-08-10T11:59:44.524Z,36.27
2022-08-10T12:00:44.520Z,36.56
2022-08-10T12:01:45.486Z,36.29
2022-08-10T12:02:44.704Z,35.32
2022-08-10T12:03:44.529Z,35.21
2022-08-10T12:04:44.522Z,35.59
2022-08-10T12:05:57.070Z,35.3
2022-08-10T12:06:57.964Z,34.14
2022-08-10T12:10:16.105Z,35.09
2022-08-10T12:11:07.226Z,34.8
2022-08-10T12:12:07.232Z,33.92
2022-08-10T12:13:06.973Z,33.64
2022-08-10T12:14:23.491Z,33.54
2022-08-10T12:15:07.242Z,33.62
2022-08-10T12:16:08.290Z,33.91
2022-08-10T12:17:07.229Z,33.99
2022-08-10T12:18:07.234Z,34.47
2022-08-10T12:19:06.992Z,35.25
2022-08-10T12:20:07.305Z,35.54
2022-08-10T12:21:07.259Z,36.41
2022-08-10T12:22:08.503Z,35.93
2022-08-10T12:23:07.235Z,36.02
2022-08-10T12:24:07.243Z,36.32
2022-08-10T12:25:07.238Z,35.73
2022-08-10T12:26:06.983Z,36.12
2022-08-10T12:27:15.488Z,36.22
2022-08-10T12:28:06.988Z,36.12
2022-08-10T12:29:07.242Z,36.51
2022-08-10T12:30:07.253Z,36.41
2022-08-10T12:31:06.994Z,36.12
2022-08-10T12:32:07.251Z,36.51
2022-08-10T12:33:07.242Z,36.51
2022-08-10T12:34:07.263Z,36.52
2022-08-10T12:35:06.996Z,36.24
2022-08-10T12:36:22.739Z,35.27
2022-08-10T12:37:07.033Z,34.99
2022-08-10T12:38:06.999Z,35.38
2022-08-10T12:39:07.313Z,35.77
2022-08-10T12:40:37.110Z,34.89
2022-08-10T12:41:07.253Z,35.67
2022-08-10T12:42:08.708Z,36.06
2022-08-10T12:44:08.754Z,36.16
2022-08-10T12:44:18.687Z,36.83
2022-08-10T12:45:18.701Z,35.69
2022-08-10T12:46:18.441Z,35.19
2022-08-10T12:47:18.439Z,34.8
2022-08-10T12:48:18.448Z,34.22
2022-08-10T12:49:18.694Z,34.12
2022-08-10T12:50:34.136Z,33.54
2022-08-10T12:51:18.696Z,33.44
2022-08-10T12:52:18.439Z,33.72
2022-08-10T12:53:18.698Z,34.11
2022-08-10T12:54:34.539Z,34.69
2022-08-10T12:55:18.444Z,34.59
2022-08-10T12:56:18.700Z,34.59
2022-08-10T12:57:18.453Z,34.67
2022-08-10T12:59:01.887Z,34.77
2022-08-10T12:59:18.448Z,34.77
2022-08-10T13:00:19.713Z,34.86
2022-08-10T13:01:19.801Z,35.05
2022-08-10T13:02:18.546Z,34.77
2022-08-10T13:04:24.474Z,35.25
2022-08-10T13:04:35.707Z,34.96
2022-08-10T13:06:04.021Z,34.2
2022-08-10T13:06:35.705Z,34.01
2022-08-10T13:08:28.922Z,34.01
2022-08-10T13:08:39.204Z,33.99
2022-08-10T13:09:58.641Z,34.67
2022-08-10T13:10:39.209Z,35.05
2022-08-10T13:12:47.132Z,34.86
2022-08-10T13:12:58.078Z,34.84
2022-08-10T13:13:58.077Z,34.84
2022-08-10T13:14:57.828Z,35.04
2022-08-10T13:15:57.824Z,34.92
2022-08-10T13:16:58.081Z,34.73
2022-08-10T13:17:58.539Z,34.83
2022-08-10T13:18:58.080Z,36.76
2022-08-10T13:20:12.554Z,36.46
2022-08-10T13:20:58.079Z,35.88
2022-08-10T13:21:57.840Z,35.39
2022-08-10T13:22:57.829Z,35.39
2022-08-10T13:24:07.066Z,35
2022-08-10T13:24:58.509Z,35.39
2022-08-10T13:25:57.833Z,35.49
2022-08-10T13:28:00.171Z,35.97
2022-08-10T13:28:55.196Z,35.5
2022-08-10T13:29:55.821Z,35.99
2022-08-10T13:30:53.582Z,34.36
2022-08-10T13:32:12.153Z,33.01
2022-08-10T13:32:54.389Z,32.54
2022-08-10T13:34:45.068Z,31.57
2022-08-10T13:34:55.050Z,31.57
2022-08-10T13:36:00.495Z,31.76
2022-08-10T13:36:55.052Z,31.86
2022-08-10T13:37:55.052Z,32.06